Time;durP1;ratioP1;P1;durP2;ratioP2;P2;SDS_P1;SDS_P2;PMS_P1;PMS_P2;Temp;Humidity;BMP_temperature;BMP_pressure;BME280_temperature;BME280_humidity;BME280_pressure;Samples;Min_cycle;Max_cycle;Signal;HPM_P1;HPM_P2
2022/05/07 00:01:05;;;;;;;4.43;4.13;;;14.90;99.90;;;;;;6065772;23;21157;-90
2022/05/07 00:03:36;;;;;;;3.33;3.13;;;14.90;99.90;;;;;;6065806;23;20652;-90
2022/05/07 00:06:05;;;;;;;3.97;3.67;;;14.90;99.90;;;;;;6066770;23;20416;-89
2022/05/07 00:08:36;;;;;;;3.87;3.60;;;15.00;99.90;;;;;;6066214;23;20457;-89
2022/05/07 00:11:08;;;;;;;4.10;3.50;;;15.00;99.90;;;;;;6065505;23;20495;-88
2022/05/07 00:13:38;;;;;;;4.20;3.90;;;15.10;99.90;;;;;;6113813;23;20653;-88
2022/05/07 00:18:56;;;;;;;4.37;4.03;;;15.10;99.90;;;;;;6198279;23;20402;-89
2022/05/07 00:21:25;;;;;;;4.70;3.70;;;15.20;99.90;;;;;;6198693;23;20433;-87
2022/05/07 00:23:53;;;;;;;4.17;3.77;;;15.10;99.90;;;;;;6190273;23;20414;-87
2022/05/07 00:26:21;;;;;;;4.40;3.93;;;15.10;99.90;;;;;;6190865;23;20460;-89
2022/05/07 00:28:54;;;;;;;4.37;3.97;;;15.00;99.90;;;;;;6194803;23;20405;-88
2022/05/07 00:31:23;;;;;;;4.57;3.80;;;14.90;99.90;;;;;;6187896;23;21096;-88
2022/05/07 00:34:13;;;;;;;3.97;3.67;;;14.80;99.90;;;;;;6188660;23;20459;-89
2022/05/07 00:36:55;;;;;;;4.50;4.10;;;14.70;99.90;;;;;;6187679;23;20420;-88
2022/05/07 00:39:40;;;;;;;5.07;4.67;;;14.50;99.90;;;;;;6185684;23;20469;-89
2022/05/07 00:42:56;;;;;;;5.77;5.30;;;14.40;99.90;;;;;;6159640;23;20441;-91
2022/05/07 00:45:52;;;;;;;5.27;4.87;;;14.20;99.90;;;;;;6126765;23;20504;-89
2022/05/07 00:48:20;;;;;;;7.20;5.93;;;14.20;99.90;;;;;;6161829;23;20904;-89
2022/05/07 00:54:58;;;;;;;9.17;6.27;;;14.10;99.90;;;;;;6155981;23;20592;-88
2022/05/07 00:57:50;;;;;;;5.60;4.70;;;14.10;99.90;;;;;;6063085;23;21079;-86
2022/05/07 01:00:28;;;;;;;6.80;6.07;;;14.00;99.90;;;;;;6063270;23;20464;-86
2022/05/07 01:03:13;;;;;;;7.20;6.50;;;14.00;99.90;;;;;;5978423;23;20408;-87
2022/05/07 01:05:48;;;;;;;5.37;4.90;;;13.90;99.90;;;;;;5975453;23;20447;-86
2022/05/07 01:08:25;;;;;;;6.60;6.00;;;13.80;99.90;;;;;;5975740;23;20633;-87
2022/05/07 01:10:57;;;;;;;8.63;5.67;;;13.80;99.90;;;;;;5976783;23;20461;-86
2022/05/07 01:13:32;;;;;;;6.30;5.70;;;13.70;99.90;;;;;;5978490;23;20431;-87
2022/05/07 01:16:07;;;;;;;7.40;6.70;;;13.60;99.90;;;;;;5978202;23;21109;-87
2022/05/07 01:18:44;;;;;;;6.60;6.00;;;13.60;99.90;;;;;;5981269;24;20949;-88
2022/05/07 01:21:17;;;;;;;6.60;6.00;;;13.50;99.90;;;;;;5982059;23;20446;-87
2022/05/07 01:23:48;;;;;;;7.43;6.70;;;13.50;99.90;;;;;;5981099;24;20450;-86
2022/05/07 01:30:27;;;;;;;7.10;6.50;;;13.40;99.90;;;;;;6000894;23;20423;-88
2022/05/07 01:36:13;;;;;;;8.17;7.37;;;13.40;99.90;;;;;;6090597;23;20436;-87
2022/05/07 01:38:54;;;;;;;8.70;7.30;;;13.40;99.90;;;;;;6092699;23;20510;-88
2022/05/07 01:41:39;;;;;;;7.40;6.70;;;13.40;99.90;;;;;;6090649;23;20439;-86
2022/05/07 01:44:14;;;;;;;8.17;7.20;;;13.30;99.90;;;;;;6100101;23;20503;-88
2022/05/07 01:49:51;;;;;;;8.33;7.63;;;13.30;99.90;;;;;;6091007;23;21169;-85
2022/05/07 01:52:39;;;;;;;9.00;8.10;;;13.40;99.90;;;;;;6090411;23;20722;-86
2022/05/07 01:55:12;;;;;;;8.50;7.50;;;13.40;99.90;;;;;;6092711;23;20408;-86
2022/05/07 01:57:41;;;;;;;8.37;7.53;;;13.40;99.90;;;;;;6091735;23;20423;-87
2022/05/07 02:00:10;;;;;;;9.03;7.90;;;13.40;99.90;;;;;;6100223;23;20434;-87
2022/05/07 02:02:47;;;;;;;10.60;7.87;;;13.30;99.90;;;;;;6156180;23;20403;-88
2022/05/07 02:05:23;;;;;;;9.50;8.40;;;13.40;99.90;;;;;;6165925;23;21079;-84
2022/05/07 02:14:41;;;;;;;7.77;7.10;;;13.30;99.90;;;;;;6093392;23;20554;-86
2022/05/07 02:17:09;;;;;;;9.90;8.17;;;13.20;99.90;;;;;;6096833;23;20400;-85
2022/05/07 02:20:02;;;;;;;9.20;8.30;;;13.20;99.90;;;;;;6144391;23;20466;-85
2022/05/07 02:22:37;;;;;;;11.30;8.40;;;13.00;99.90;;;;;;6163442;23;20407;-85
2022/05/07 02:25:09;;;;;;;8.23;6.90;;;13.10;99.90;;;;;;6176870;23;20422;-85
2022/05/07 02:27:48;;;;;;;8.97;7.70;;;13.10;99.90;;;;;;6169841;23;20918;-86
2022/05/07 02:30:20;;;;;;;8.37;7.67;;;13.10;99.90;;;;;;6156562;23;20434;-88
2022/05/07 02:32:49;;;;;;;9.93;7.30;;;13.10;99.90;;;;;;6155621;23;20884;-87
2022/05/07 02:35:21;;;;;;;8.07;7.20;;;13.00;99.90;;;;;;6155089;23;20920;-87
2022/05/07 02:38:09;;;;;;;9.50;8.60;;;12.90;99.90;;;;;;6152982;23;20731;-87
2022/05/07 02:43:20;;;;;;;8.50;7.60;;;12.80;99.90;;;;;;6150647;23;21045;-86
2022/05/07 02:45:49;;;;;;;9.47;8.50;;;12.90;99.90;;;;;;6152530;23;20481;-87
2022/05/07 02:48:29;;;;;;;8.53;7.60;;;13.00;99.90;;;;;;6152161;23;20418;-85
2022/05/07 02:55:31;;;;;;;14.80;11.17;;;13.20;99.90;;;;;;5958953;23;21054;-85
2022/05/07 03:05:58;;;;;;;13.63;11.00;;;13.50;99.90;;;;;;5891465;24;20522;-87
2022/05/07 03:08:39;;;;;;;15.43;12.80;;;13.60;99.90;;;;;;5896271;24;21030;-84
2022/05/07 03:11:34;;;;;;;17.17;12.83;;;13.60;99.90;;;;;;5917440;24;21070;-86
2022/05/07 03:14:17;;;;;;;17.20;15.30;;;13.60;99.90;;;;;;5913421;24;20473;-85
2022/05/07 03:16:55;;;;;;;15.80;13.67;;;13.70;99.90;;;;;;5918713;24;20445;-87
2022/05/07 03:20:08;;;;;;;;;;;;;;;;;;;;;
2022/05/07 03:23:39;;;;;;;19.70;13.70;;;13.60;99.90;;;;;;5874943;24;20403;-88
2022/05/07 03:37:28;;;;;;;16.27;13.23;;;12.90;99.90;;;;;;5813917;24;20422;-88
2022/05/07 03:43:46;;;;;;;16.87;14.00;;;12.70;99.90;;;;;;5893918;24;20419;-88
2022/05/07 03:55:44;;;;;;;21.00;16.17;;;12.40;99.90;;;;;;6002735;23;20411;-87
2022/05/07 04:04:58;;;;;;;23.20;20.47;;;12.30;99.90;;;;;;6016154;23;20888;-86
2022/05/07 04:07:47;;;;;;;28.13;17.73;;;12.30;99.90;;;;;;5985545;23;20411;-86
2022/05/07 04:10:18;;;;;;;27.23;20.07;;;12.30;99.90;;;;;;6147638;23;21058;-88
2022/05/07 04:12:51;;;;;;;25.53;20.23;;;12.30;99.90;;;;;;6152138;23;20407;-86
2022/05/07 04:15:24;;;;;;;28.97;19.63;;;12.30;99.90;;;;;;6151651;23;20411;-86
2022/05/07 04:17:53;;;;;;;26.37;20.30;;;12.30;99.90;;;;;;6152800;23;20414;-88
2022/05/07 04:20:33;;;;;;;27.27;20.27;;;12.30;99.90;;;;;;6153358;23;20442;-85
2022/05/07 04:23:04;;;;;;;30.43;22.97;;;12.30;99.90;;;;;;6154730;23;20442;-87
2022/05/07 04:25:39;;;;;;;28.20;22.10;;;12.30;99.90;;;;;;6157796;23;20378;-86
2022/05/07 04:28:09;;;;;;;33.90;22.63;;;12.30;99.90;;;;;;6164925;23;20422;-88
2022/05/07 04:30:38;;;;;;;26.93;20.57;;;12.30;99.90;;;;;;6173687;23;20436;-87
2022/05/07 04:33:07;;;;;;;30.90;24.10;;;12.30;99.90;;;;;;6155802;23;20473;-86
2022/05/07 04:35:37;;;;;;;35.23;25.50;;;12.30;99.90;;;;;;6156498;23;20415;-88
2022/05/07 04:38:08;;;;;;;33.10;25.37;;;12.40;99.90;;;;;;6155179;23;20414;-89
2022/05/07 04:40:42;;;;;;;30.90;20.40;;;12.40;99.90;;;;;;6157640;23;20458;-87
2022/05/07 04:43:45;;;;;;;;;;;;;;;;;;;;;
2022/05/07 05:15:01;;;;;;;32.40;24.97;;;13.70;99.90;;;;;;6171812;23;20445;-87
2022/05/07 05:16:55;;;;;;;32.77;25.53;;;13.90;99.90;;;;;;6187073;23;20476;-87
2022/05/07 05:19:23;;;;;;;31.23;26.67;;;14.10;99.90;;;;;;6185910;23;20413;-87
2022/05/07 05:21:52;;;;;;;31.60;24.63;;;14.30;99.90;;;;;;6190363;23;20405;-89
2022/05/07 05:24:23;;;;;;;34.17;26.70;;;14.40;99.90;;;;;;6187622;23;20394;-88
2022/05/07 05:26:53;;;;;;;35.10;26.80;;;14.50;99.90;;;;;;6191653;23;20441;-87
2022/05/07 05:29:23;;;;;;;35.97;26.00;;;14.60;99.90;;;;;;6197665;23;20425;-88
2022/05/07 05:31:54;;;;;;;40.40;27.00;;;14.80;99.90;;;;;;6206800;23;20389;-87
2022/05/07 05:34:22;;;;;;;34.90;25.17;;;14.80;99.90;;;;;;6197741;23;20410;-88
2022/05/07 05:36:52;;;;;;;29.60;24.63;;;14.90;99.90;;;;;;6195429;23;20426;-89
2022/05/07 05:39:23;;;;;;;37.07;27.57;;;15.00;99.90;;;;;;6192915;23;20448;-88
2022/05/07 05:41:52;;;;;;;34.30;26.97;;;15.00;99.90;;;;;;6189739;23;20409;-87
2022/05/07 05:44:20;;;;;;;34.40;26.50;;;15.10;99.90;;;;;;6192559;23;20410;-86
2022/05/07 05:46:49;;;;;;;35.30;28.17;;;15.20;99.90;;;;;;6192060;23;20444;-88
2022/05/07 05:49:18;;;;;;;36.50;28.53;;;15.20;99.90;;;;;;6187600;23;20414;-88
2022/05/07 05:51:48;;;;;;;33.53;27.00;;;15.20;99.90;;;;;;6190225;23;20429;-87
2022/05/07 05:54:16;;;;;;;34.97;27.93;;;15.20;99.90;;;;;;6188121;23;20429;-88
2022/05/07 05:56:45;;;;;;;30.50;25.27;;;15.20;99.90;;;;;;6189147;23;20931;-87
2022/05/07 05:59:13;;;;;;;33.03;24.97;;;15.30;99.90;;;;;;6188465;23;20413;-85
2022/05/07 06:01:42;;;;;;;29.60;25.70;;;15.30;99.90;;;;;;6189772;23;20452;-88
2022/05/07 06:04:11;;;;;;;33.00;26.20;;;15.30;99.90;;;;;;6192875;23;20420;-86
2022/05/07 06:06:39;;;;;;;31.63;24.77;;;15.40;99.90;;;;;;6195812;23;20445;-86
2022/05/07 06:09:08;;;;;;;27.90;23.13;;;15.50;99.90;;;;;;6195992;23;20420;-88
2022/05/07 06:11:36;;;;;;;27.33;22.20;;;15.50;99.90;;;;;;6195059;23;20421;-88
2022/05/07 06:14:04;;;;;;;26.10;23.30;;;15.60;99.90;;;;;;6194018;23;20444;-87
2022/05/07 06:16:33;;;;;;;28.20;22.17;;;15.70;99.90;;;;;;6196240;23;20401;-90
2022/05/07 06:19:03;;;;;;;26.90;22.40;;;15.80;99.90;;;;;;6196688;23;20394;-87
2022/05/07 06:29:01;;;;;;;22.10;18.87;;;16.10;99.90;;;;;;6147400;23;20461;-89
2022/05/07 06:31:39;;;;;;;21.40;19.00;;;16.20;99.90;;;;;;6165701;23;20418;-89
2022/05/07 06:34:22;;;;;;;;;;;;;;;;;;;;;
2022/05/07 06:40:16;;;;;;;18.20;15.53;;;16.40;99.90;;;;;;6167020;23;20430;-89
2022/05/07 06:43:03;;;;;;;18.23;15.30;;;16.60;99.90;;;;;;6171097;23;20398;-89
2022/05/07 07:06:34;;;;;;;;;;;;;;;;;;;;;
2022/05/07 07:47:59;;;;;;;10.07;7.73;;;17.70;99.90;;;;;;6165185;23;20419;-87
2022/05/07 07:50:30;;;;;;;10.00;7.30;;;17.70;99.90;;;;;;6184328;23;20613;-89
2022/05/07 07:53:01;;;;;;;13.13;8.00;;;17.80;99.90;;;;;;6194271;23;20402;-88
2022/05/07 07:55:31;;;;;;;9.70;7.37;;;18.00;99.90;;;;;;6198191;23;20425;-89
2022/05/07 07:58:06;;;;;;;9.23;7.97;;;18.00;99.90;;;;;;6199030;23;20409;-87
2022/05/07 08:00:35;;;;;;;9.00;7.60;;;18.10;99.90;;;;;;6190808;23;20442;-85
2022/05/07 08:03:10;;;;;;;9.90;8.80;;;18.10;99.90;;;;;;6187673;23;20437;-85
2022/05/07 08:05:39;;;;;;;9.13;7.83;;;17.90;99.90;;;;;;6191950;23;20405;-85
2022/05/07 08:13:41;;;;;;;10.63;8.00;;;18.10;99.90;;;;;;6190112;23;20423;-84
2022/05/07 08:16:11;;;;;;;6.80;6.17;;;18.20;99.90;;;;;;6188090;23;20439;-85
2022/05/07 08:18:42;;;;;;;11.13;9.30;;;18.30;99.90;;;;;;6190075;23;20423;-87
2022/05/07 08:21:11;;;;;;;12.27;8.67;;;18.40;99.90;;;;;;6190381;23;20437;-86
2022/05/07 08:23:41;;;;;;;11.00;9.00;;;18.50;99.90;;;;;;6192366;23;20405;-85
2022/05/07 08:26:10;;;;;;;8.73;7.93;;;18.60;99.90;;;;;;6195001;23;20418;-87
2022/05/07 08:28:39;;;;;;;13.00;8.50;;;18.60;99.90;;;;;;6190102;23;20470;-87
2022/05/07 08:31:07;;;;;;;12.93;8.77;;;18.60;99.90;;;;;;6192550;23;20480;-87
2022/05/07 08:33:37;;;;;;;12.80;8.27;;;18.60;99.90;;;;;;6192567;23;20551;-85
2022/05/07 08:36:06;;;;;;;12.63;9.37;;;18.60;99.90;;;;;;6190455;23;20484;-86
2022/05/07 08:38:35;;;;;;;8.30;7.47;;;18.80;99.90;;;;;;6200521;23;20409;-87
2022/05/07 08:41:03;;;;;;;8.00;7.13;;;18.90;99.90;;;;;;6195826;23;20488;-87
2022/05/07 08:43:36;;;;;;;8.83;7.90;;;19.00;99.90;;;;;;6165522;23;20497;-86
2022/05/07 08:46:13;;;;;;;12.73;9.60;;;19.20;99.90;;;;;;6159667;23;20479;-85
2022/05/07 08:48:49;;;;;;;11.30;8.30;;;19.20;99.90;;;;;;6158402;23;20420;-85
2022/05/07 08:51:21;;;;;;;13.30;8.03;;;19.30;99.90;;;;;;6155368;23;20457;-85
2022/05/07 08:53:53;;;;;;;8.17;7.30;;;19.50;99.90;;;;;;6156792;23;20375;-85
2022/05/07 08:56:23;;;;;;;9.53;6.90;;;19.50;99.90;;;;;;6166224;23;20387;-84
2022/05/07 08:58:52;;;;;;;7.50;6.80;;;19.50;99.90;;;;;;6167662;23;20391;-84
2022/05/07 09:01:23;;;;;;;7.57;6.87;;;19.60;99.90;;;;;;6166664;23;20425;-85
2022/05/07 09:03:51;;;;;;;8.93;6.97;;;19.70;99.90;;;;;;6167929;23;20414;-85
2022/05/07 09:06:26;;;;;;;7.80;6.53;;;19.90;99.90;;;;;;6175904;23;20423;-86
2022/05/07 09:08:56;;;;;;;7.73;6.47;;;19.90;99.90;;;;;;6174303;23;20480;-86
2022/05/07 09:11:25;;;;;;;7.20;6.50;;;20.00;99.90;;;;;;6168458;23;20426;-88
2022/05/07 09:14:01;;;;;;;7.20;6.50;;;20.20;99.90;;;;;;6165608;23;20425;-85
2022/05/07 09:16:43;;;;;;;7.57;6.47;;;20.30;99.90;;;;;;6165738;23;20426;-83
2022/05/07 09:19:23;;;;;;;9.47;7.97;;;20.30;99.90;;;;;;6167458;23;20399;-84
2022/05/07 09:21:54;;;;;;;10.47;8.30;;;20.20;99.90;;;;;;6168747;23;20394;-84
2022/05/07 09:24:23;;;;;;;10.00;7.40;;;20.10;99.90;;;;;;6167066;23;20402;-84
2022/05/07 09:26:51;;;;;;;8.00;7.17;;;20.00;99.90;;;;;;6165615;23;20406;-87
2022/05/07 09:29:20;;;;;;;7.63;6.40;;;20.00;99.90;;;;;;6160923;23;20446;-84
2022/05/07 09:31:50;;;;;;;7.67;6.90;;;20.10;99.90;;;;;;6159365;23;20489;-83
2022/05/07 09:37:22;;;;;;;6.80;6.13;;;20.20;99.90;;;;;;6101830;23;20723;-84
2022/05/07 09:39:52;;;;;;;7.07;5.50;;;20.30;99.90;;;;;;6106342;23;20466;-83
2022/05/07 09:42:21;;;;;;;7.30;6.07;;;20.40;99.90;;;;;;6138709;23;20465;-86
2022/05/07 09:44:50;;;;;;;6.77;6.07;;;20.40;99.90;;;;;;6169194;23;20387;-85
2022/05/07 09:47:18;;;;;;;5.13;4.73;;;20.40;99.90;;;;;;6165285;23;20468;-85
2022/05/07 09:52:37;;;;;;;11.60;6.53;;;20.60;99.90;;;;;;6167613;23;20422;-84
2022/05/07 09:57:51;;;;;;;8.00;7.20;;;20.70;99.90;;;;;;6165686;23;20614;-84
2022/05/07 10:00:21;;;;;;;8.43;7.17;;;20.70;99.90;;;;;;6163426;23;20454;-85
2022/05/07 10:03:00;;;;;;;11.50;7.50;;;20.80;99.90;;;;;;6167911;23;20368;-86
2022/05/07 10:05:59;;;;;;;9.83;8.83;;;20.70;99.90;;;;;;6172426;23;20403;-87
2022/05/07 10:08:47;;;;;;;9.63;8.50;;;20.70;99.90;;;;;;6171366;23;20430;-87
2022/05/07 10:11:16;;;;;;;15.50;10.60;;;20.60;99.90;;;;;;6169372;23;20635;-86
2022/05/07 10:13:55;;;;;;;12.20;9.70;;;20.50;99.90;;;;;;6168056;23;20459;-86
2022/05/07 10:16:24;;;;;;;13.80;10.53;;;20.30;99.90;;;;;;6165253;23;20420;-85
2022/05/07 10:18:55;;;;;;;14.43;11.33;;;20.20;99.90;;;;;;6153861;23;20942;-85
2022/05/07 10:21:23;;;;;;;12.50;11.00;;;20.00;99.90;;;;;;6154275;23;20423;-86
2022/05/07 10:23:54;;;;;;;14.57;12.13;;;19.80;99.90;;;;;;6157197;23;20395;-85
2022/05/07 10:26:24;;;;;;;14.50;12.90;;;19.80;99.90;;;;;;6156248;23;20427;-85
2022/05/07 10:28:52;;;;;;;14.83;12.33;;;19.80;99.90;;;;;;6157347;23;20513;-84
2022/05/07 10:31:22;;;;;;;12.47;11.27;;;19.90;99.90;;;;;;6155193;23;20434;-86
2022/05/07 10:33:52;;;;;;;12.03;9.17;;;20.10;99.90;;;;;;6155328;23;20406;-86
2022/05/07 10:36:33;;;;;;;14.70;11.80;;;20.20;99.90;;;;;;6154298;23;20474;-83
2022/05/07 10:39:08;;;;;;;12.10;10.90;;;20.30;99.90;;;;;;6155164;23;20390;-85
2022/05/07 10:41:47;;;;;;;11.50;10.33;;;20.40;99.90;;;;;;6170414;23;20406;-86
2022/05/07 10:44:33;;;;;;;9.67;8.77;;;20.60;99.90;;;;;;6163062;23;20409;-85
2022/05/07 10:47:12;;;;;;;11.60;10.40;;;20.80;99.90;;;;;;6156111;23;20410;-85
2022/05/07 10:50:07;;;;;;;14.80;11.77;;;21.10;99.90;;;;;;6154988;23;20469;-87
2022/05/07 10:52:36;;;;;;;12.30;11.10;;;21.10;99.90;;;;;;6155229;23;20472;-85
2022/05/07 10:55:10;;;;;;;11.93;9.70;;;21.20;99.90;;;;;;6151671;23;20694;-84
2022/05/07 10:57:40;;;;;;;9.70;7.43;;;21.40;99.90;;;;;;6151745;23;20402;-84
2022/05/07 11:00:24;;;;;;;10.53;9.43;;;21.50;99.90;;;;;;6154580;23;20438;-87
2022/05/07 11:02:58;;;;;;;12.00;10.73;;;21.50;99.90;;;;;;6154762;23;20417;-86
2022/05/07 11:05:33;;;;;;;7.40;6.57;;;21.40;99.90;;;;;;6153575;23;20423;-85
2022/05/07 11:08:03;;;;;;;8.43;7.63;;;21.40;99.90;;;;;;6153869;23;21135;-89
2022/05/07 11:10:33;;;;;;;8.43;6.83;;;21.20;99.90;;;;;;6153780;23;20536;-88
2022/05/07 11:13:08;;;;;;;9.07;7.47;;;21.00;99.90;;;;;;6154047;23;20477;-88
2022/05/07 11:15:38;;;;;;;8.47;7.67;;;20.90;99.90;;;;;;6152642;23;20388;-89
2022/05/07 11:18:17;;;;;;;7.43;6.73;;;20.80;99.90;;;;;;6156392;23;20430;-89
2022/05/07 11:21:00;;;;;;;8.50;7.70;;;20.80;99.90;;;;;;6155751;23;20576;-88
2022/05/07 11:23:30;;;;;;;7.10;6.50;;;20.80;99.90;;;;;;6156028;23;20442;-87
2022/05/07 11:26:11;;;;;;;6.07;5.40;;;20.80;99.90;;;;;;6155303;23;20469;-88
2022/05/07 11:28:43;;;;;;;7.60;5.47;;;20.80;99.90;;;;;;6154890;23;20525;-86
2022/05/07 11:31:29;;;;;;;9.50;7.00;;;20.80;99.90;;;;;;6156245;23;20444;-88
2022/05/07 11:34:07;;;;;;;7.87;6.00;;;20.80;99.90;;;;;;6163664;23;20411;-88
2022/05/07 11:36:36;;;;;;;6.83;5.10;;;20.80;99.90;;;;;;6156258;23;20405;-86
2022/05/07 11:39:09;;;;;;;7.40;6.30;;;20.70;99.90;;;;;;6155750;23;20411;-86
2022/05/07 11:41:44;;;;;;;10.10;7.67;;;20.70;99.90;;;;;;6156578;23;20429;-86
2022/05/07 11:47:22;;;;;;;8.10;7.17;;;20.50;99.90;;;;;;6098018;23;20415;-86
2022/05/07 11:50:05;;;;;;;10.57;8.30;;;20.20;99.90;;;;;;6127079;23;20447;-87
2022/05/07 11:52:38;;;;;;;9.70;8.70;;;20.00;99.90;;;;;;6128614;23;20380;-86
2022/05/07 11:55:08;;;;;;;8.53;7.70;;;20.00;99.90;;;;;;6129948;23;20412;-88
2022/05/07 11:57:38;;;;;;;11.73;8.30;;;19.90;99.90;;;;;;6132027;23;20416;-86
2022/05/07 12:00:15;;;;;;;10.70;8.67;;;19.90;99.90;;;;;;6126025;23;20427;-88
2022/05/07 12:02:57;;;;;;;10.10;7.73;;;19.90;99.90;;;;;;6126582;23;20493;-88
2022/05/07 12:05:27;;;;;;;10.40;8.17;;;19.80;99.90;;;;;;6128968;23;20461;-88
2022/05/07 12:07:55;;;;;;;12.43;9.90;;;19.70;99.90;;;;;;6126782;23;20459;-87
2022/05/07 12:10:24;;;;;;;9.40;8.37;;;19.60;99.90;;;;;;6127714;23;20660;-89
2022/05/07 12:12:53;;;;;;;12.37;11.17;;;19.50;99.90;;;;;;6125801;23;20509;-85
2022/05/07 12:18:04;;;;;;;13.33;10.77;;;19.30;99.90;;;;;;6132188;23;20578;-87
2022/05/07 12:20:36;;;;;;;12.53;8.83;;;19.30;99.90;;;;;;6127823;23;20519;-87
2022/05/07 12:31:52;;;;;;;7.80;7.00;;;19.30;99.90;;;;;;6037342;23;20440;-86
2022/05/07 12:34:34;;;;;;;7.20;6.50;;;19.20;99.90;;;;;;6038203;23;20424;-90
2022/05/07 12:37:28;;;;;;;;;;;;;;;;;;;;;
2022/05/07 12:43:38;;;;;;;4.77;4.37;;;19.60;99.90;;;;;;5992982;23;20402;-90
2022/05/07 12:46:09;;;;;;;5.13;4.40;;;19.70;99.90;;;;;;6027563;23;20489;-89
2022/05/07 12:48:38;;;;;;;4.20;3.90;;;19.70;99.90;;;;;;6027104;23;20419;-90
2022/05/07 12:51:08;;;;;;;5.30;3.87;;;19.80;99.90;;;;;;6016359;23;20942;-89
2022/05/07 12:53:36;;;;;;;4.40;3.33;;;19.90;99.90;;;;;;6005167;23;20425;-87
2022/05/07 12:56:05;;;;;;;5.37;3.70;;;20.10;99.90;;;;;;6005288;23;20407;-85
2022/05/07 12:58:33;;;;;;;4.37;4.07;;;20.20;99.90;;;;;;6004795;23;20448;-83
2022/05/07 13:01:03;;;;;;;3.67;3.30;;;20.30;99.90;;;;;;6108346;23;20439;-85
2022/05/07 13:03:32;;;;;;;7.33;3.57;;;20.50;99.90;;;;;;6123051;23;20423;-85
2022/05/07 13:06:00;;;;;;;4.00;3.60;;;20.60;99.90;;;;;;6126689;23;20470;-87
2022/05/07 13:08:28;;;;;;;3.33;3.03;;;20.50;99.90;;;;;;6123941;23;20416;-85
2022/05/07 13:10:58;;;;;;;4.33;4.00;;;20.40;99.90;;;;;;6124013;23;20506;-85
2022/05/07 13:13:26;;;;;;;3.77;3.47;;;20.40;99.90;;;;;;6122508;23;20427;-84
2022/05/07 13:15:55;;;;;;;6.17;2.90;;;20.30;99.90;;;;;;6123416;23;20427;-85
2022/05/07 13:18:24;;;;;;;6.00;3.50;;;20.00;99.90;;;;;;6123482;23;20380;-86
2022/05/07 13:20:55;;;;;;;4.50;3.60;;;19.90;99.90;;;;;;6123446;23;20451;-84
2022/05/07 13:23:25;;;;;;;3.57;3.20;;;19.80;99.90;;;;;;6125269;23;20623;-86
2022/05/07 13:25:53;;;;;;;3.20;3.00;;;19.60;99.90;;;;;;6125719;23;20429;-86
2022/05/07 13:28:23;;;;;;;2.63;2.33;;;19.60;99.90;;;;;;6126050;23;20976;-85
2022/05/07 13:30:56;;;;;;;2.73;2.47;;;19.50;99.90;;;;;;6125361;23;20450;-85
2022/05/07 13:33:24;;;;;;;2.83;2.53;;;19.40;99.90;;;;;;6123931;23;20414;-85
2022/05/07 13:35:52;;;;;;;3.53;2.60;;;19.30;99.90;;;;;;6125957;23;20401;-85
2022/05/07 13:38:24;;;;;;;2.60;2.20;;;19.10;99.90;;;;;;6125166;23;20481;-88
2022/05/07 13:40:52;;;;;;;3.50;2.80;;;19.10;99.90;;;;;;6126461;23;20439;-87
2022/05/07 13:43:20;;;;;;;3.27;2.50;;;19.10;99.90;;;;;;6125673;23;20438;-88
2022/05/07 13:45:56;;;;;;;3.37;2.60;;;19.20;99.90;;;;;;6128272;23;20444;-87
2022/05/07 13:48:25;;;;;;;4.10;3.70;;;19.40;99.90;;;;;;6146597;23;20402;-87
2022/05/07 13:50:53;;;;;;;2.50;2.27;;;19.30;99.90;;;;;;6131807;23;20453;-86
2022/05/07 13:53:26;;;;;;;3.77;2.43;;;19.30;99.90;;;;;;6127970;23;20469;-86
2022/05/07 13:55:54;;;;;;;8.80;2.50;;;19.10;99.90;;;;;;6130850;23;20494;-88
2022/05/07 13:58:23;;;;;;;3.00;2.13;;;19.10;99.90;;;;;;6127962;23;20709;-88
2022/05/07 14:00:52;;;;;;;4.00;3.27;;;19.10;99.90;;;;;;6126548;23;20472;-86
2022/05/07 14:03:21;;;;;;;3.43;3.13;;;19.10;99.90;;;;;;6124860;23;20447;-88
2022/05/07 14:05:50;;;;;;;3.13;2.87;;;19.10;99.90;;;;;;6125042;23;20468;-87
2022/05/07 14:08:20;;;;;;;5.17;4.20;;;19.10;99.90;;;;;;6123321;23;20417;-86
2022/05/07 14:10:50;;;;;;;5.33;3.67;;;19.10;99.90;;;;;;6125734;23;20442;-87
2022/05/07 14:13:23;;;;;;;5.03;4.60;;;19.10;99.90;;;;;;6123471;23;20432;-88
2022/05/07 14:15:55;;;;;;;4.57;4.27;;;19.10;99.90;;;;;;6124910;23;20495;-88
2022/05/07 14:18:24;;;;;;;4.40;4.00;;;19.00;99.90;;;;;;6126213;23;20410;-90
2022/05/07 14:21:05;;;;;;;4.20;3.70;;;18.80;99.90;;;;;;6129379;23;20496;-91
2022/05/07 14:24:08;;;;;;;5.70;5.10;;;18.60;99.90;;;;;;6125957;23;20412;-91
2022/05/07 14:26:42;;;;;;;4.67;4.30;;;18.40;99.90;;;;;;6127868;23;20439;-90
2022/05/07 14:29:13;;;;;;;4.53;4.10;;;18.30;99.90;;;;;;6128722;23;20457;-89
2022/05/07 14:31:43;;;;;;;4.57;4.23;;;18.30;99.90;;;;;;6125853;23;20489;-92
2022/05/07 14:34:15;;;;;;;3.83;3.53;;;18.30;99.90;;;;;;6125757;23;20418;-89
2022/05/07 14:36:45;;;;;;;4.60;3.83;;;18.50;99.90;;;;;;6131718;23;20494;-92
2022/05/07 14:39:14;;;;;;;4.10;3.40;;;18.60;99.90;;;;;;6127320;23;20519;-92
2022/05/07 14:41:44;;;;;;;5.60;4.13;;;18.70;99.90;;;;;;6128349;23;20418;-89
2022/05/07 14:44:28;;;;;;;4.53;4.13;;;18.70;99.90;;;;;;6128768;23;20413;-91
2022/05/07 14:46:59;;;;;;;5.00;4.50;;;18.70;99.90;;;;;;6131402;23;20482;-91
2022/05/07 14:49:28;;;;;;;4.20;3.90;;;18.60;99.90;;;;;;6139451;23;20478;-91
2022/05/07 14:51:56;;;;;;;4.27;3.87;;;18.40;99.90;;;;;;6141449;23;20876;-91
2022/05/07 14:54:43;;;;;;;4.23;3.93;;;18.40;99.90;;;;;;6132315;23;20469;-90
2022/05/07 14:57:26;;;;;;;4.70;4.30;;;18.30;99.90;;;;;;6134121;23;20836;-90
2022/05/07 14:59:56;;;;;;;3.17;2.87;;;18.20;99.90;;;;;;6133764;23;20504;-91
2022/05/07 15:02:24;;;;;;;3.20;2.90;;;18.10;99.90;;;;;;6131968;23;20629;-90
2022/05/07 15:04:53;;;;;;;2.90;2.70;;;18.00;99.90;;;;;;6130669;23;20519;-93
2022/05/07 15:07:22;;;;;;;3.10;2.80;;;18.00;99.90;;;;;;6131113;23;20502;-93
2022/05/07 15:13:04;;;;;;;3.90;3.63;;;17.80;99.90;;;;;;6131452;23;20408;-89
2022/05/07 15:15:40;;;;;;;4.23;3.93;;;17.70;99.90;;;;;;6131972;23;20410;-91
2022/05/07 15:18:09;;;;;;;5.63;4.63;;;17.60;99.90;;;;;;6130380;23;21001;-90
2022/05/07 15:20:41;;;;;;;5.77;5.17;;;17.50;99.90;;;;;;6127865;23;20433;-90
2022/05/07 15:23:09;;;;;;;4.90;4.50;;;17.50;99.90;;;;;;6128090;23;20400;-89
2022/05/07 15:25:41;;;;;;;5.50;5.00;;;17.40;99.90;;;;;;6129987;23;20435;-90
2022/05/07 15:28:19;;;;;;;5.53;4.27;;;17.30;99.90;;;;;;6128755;23;20415;-90
2022/05/07 15:30:50;;;;;;;8.50;4.83;;;17.30;99.90;;;;;;6128662;23;20450;-89
2022/05/07 15:38:56;;;;;;;4.70;4.30;;;17.10;99.90;;;;;;6126964;23;20435;-88
2022/05/07 15:41:24;;;;;;;4.03;3.70;;;17.00;99.90;;;;;;6134507;23;21095;-90
2022/05/07 15:43:57;;;;;;;4.20;3.80;;;17.10;99.90;;;;;;6131301;23;20413;-88
2022/05/07 15:46:38;;;;;;;4.83;4.00;;;17.10;99.90;;;;;;6128519;23;20423;-89
2022/05/07 15:49:10;;;;;;;3.70;3.40;;;17.10;99.90;;;;;;6131239;23;20418;-89
2022/05/07 15:51:47;;;;;;;3.50;3.23;;;17.20;99.90;;;;;;6142768;23;20426;-88
2022/05/07 15:54:20;;;;;;;3.57;3.30;;;17.10;99.90;;;;;;6140334;23;20417;-88
2022/05/07 15:56:48;;;;;;;4.60;3.97;;;17.10;99.90;;;;;;6133779;23;20840;-89
2022/05/07 15:59:20;;;;;;;5.17;3.30;;;17.10;99.90;;;;;;6122494;23;20464;-90
2022/05/07 16:01:48;;;;;;;4.93;3.87;;;17.10;99.90;;;;;;6129821;23;20404;-88
2022/05/07 16:04:17;;;;;;;3.87;3.57;;;17.20;99.90;;;;;;6128346;23;20885;-88
2022/05/07 16:06:47;;;;;;;4.20;3.80;;;17.20;99.90;;;;;;6128708;23;20417;-89
2022/05/07 16:09:35;;;;;;;3.97;3.60;;;17.30;99.90;;;;;;6127877;23;20442;-88
2022/05/07 16:12:04;;;;;;;4.40;3.90;;;17.30;99.90;;;;;;6127586;23;20436;-90
2022/05/07 16:14:36;;;;;;;3.83;2.80;;;17.30;99.90;;;;;;6126025;23;20415;-90
2022/05/07 16:17:05;;;;;;;3.00;2.80;;;17.20;99.90;;;;;;6127399;23;20724;-87
2022/05/07 16:19:33;;;;;;;4.87;2.30;;;17.20;99.90;;;;;;6128276;23;20440;-90
2022/05/07 16:24:57;;;;;;;3.30;2.90;;;17.10;99.90;;;;;;6128393;23;20430;-89
2022/05/07 16:25:00;;;;;;;3.63;2.43;;;17.10;99.90;;;;;;6128257;23;20373;-90
2022/05/07 16:27:28;;;;;;;3.80;2.60;;;17.10;99.90;;;;;;6127950;23;20415;-89
2022/05/07 16:29:59;;;;;;;2.57;2.37;;;17.10;99.90;;;;;;6128845;23;20663;-90
2022/05/07 16:32:29;;;;;;;2.27;2.17;;;17.10;99.90;;;;;;6130170;23;20475;-89
2022/05/07 16:34:58;;;;;;;2.50;2.30;;;17.10;99.90;;;;;;6129823;23;20416;-91
2022/05/07 16:37:28;;;;;;;2.60;2.37;;;17.10;99.90;;;;;;6131525;23;20408;-88
2022/05/07 16:39:57;;;;;;;2.20;2.10;;;17.20;99.90;;;;;;6132450;23;20445;-89
2022/05/07 16:42:26;;;;;;;2.43;2.03;;;17.30;99.90;;;;;;6128527;23;20412;-89
2022/05/07 16:44:54;;;;;;;2.83;2.17;;;17.40;99.90;;;;;;6127864;23;20433;-89
2022/05/07 16:47:24;;;;;;;2.60;1.80;;;17.50;99.90;;;;;;6130875;23;20415;-91